Time;durP1;ratioP1;P1;durP2;ratioP2;P2;SDS_P1;SDS_P2;PMS_P1;PMS_P2;Temp;Humidity;BMP_temperature;BMP_pressure;BME280_temperature;BME280_humidity;BME280_pressure;Samples;Min_cycle;Max_cycle;Signal;HPM_P1;HPM_P2
2023/09/18 00:01:56;;;;;;;9.97;3.87;;;20.30;99.90;;;;;;5014533;28;20173;-48
2023/09/18 00:04:22;;;;;;;6.20;3.80;;;20.30;99.90;;;;;;5014588;28;20192;-49
2023/09/18 00:06:49;;;;;;;10.50;4.20;;;20.30;99.90;;;;;;5014840;28;20186;-45
2023/09/18 00:09:15;;;;;;;5.50;3.53;;;20.30;99.90;;;;;;5014725;28;20593;-44
2023/09/18 00:11:41;;;;;;;4.43;3.70;;;20.30;99.90;;;;;;5014648;28;20240;-42
2023/09/18 00:14:11;;;;;;;8.07;3.97;;;20.20;99.90;;;;;;5014062;28;20182;-42
2023/09/18 00:16:37;;;;;;;11.30;4.23;;;20.20;99.90;;;;;;5013997;28;20202;-44
2023/09/18 00:19:04;;;;;;;5.33;3.83;;;20.20;99.90;;;;;;4996863;28;20283;-49
2023/09/18 00:21:31;;;;;;;9.00;3.97;;;20.20;99.90;;;;;;5014282;28;20169;-48
2023/09/18 00:23:58;;;;;;;6.83;3.53;;;20.10;99.90;;;;;;5013550;28;20177;-48
2023/09/18 00:26:25;;;;;;;6.27;3.80;;;20.10;99.90;;;;;;5012730;28;20236;-49
2023/09/18 00:28:51;;;;;;;7.20;3.97;;;20.10;99.90;;;;;;5012599;28;20272;-48
2023/09/18 00:31:17;;;;;;;9.23;4.10;;;20.10;99.90;;;;;;5014181;28;20256;-49
2023/09/18 00:33:43;;;;;;;10.40;4.43;;;20.10;99.90;;;;;;5013811;28;20185;-49
2023/09/18 00:36:10;;;;;;;12.10;4.03;;;20.10;99.90;;;;;;5014011;28;20209;-50
2023/09/18 00:38:36;;;;;;;10.40;4.50;;;20.10;99.90;;;;;;5013946;28;20664;-49
2023/09/18 00:41:02;;;;;;;8.17;4.30;;;20.10;99.90;;;;;;5013938;28;20261;-50
2023/09/18 00:43:28;;;;;;;6.33;4.00;;;20.10;99.90;;;;;;5014126;28;20174;-48
2023/09/18 00:45:54;;;;;;;10.17;4.23;;;20.00;99.90;;;;;;5013740;28;20208;-49
2023/09/18 00:48:20;;;;;;;7.83;4.40;;;20.00;99.90;;;;;;5013569;28;20185;-48
2023/09/18 00:50:48;;;;;;;10.30;3.93;;;20.00;99.90;;;;;;5013851;28;20202;-49
2023/09/18 00:53:20;;;;;;;8.03;4.07;;;19.90;99.90;;;;;;5012301;28;20184;-48
2023/09/18 00:55:46;;;;;;;6.77;3.70;;;19.90;99.90;;;;;;5013564;28;20180;-49
2023/09/18 00:58:12;;;;;;;6.03;3.80;;;19.90;99.90;;;;;;5013794;28;20213;-50
2023/09/18 01:00:38;;;;;;;9.43;4.80;;;20.00;99.90;;;;;;5013479;28;20225;-50
2023/09/18 01:03:04;;;;;;;10.07;4.40;;;20.00;99.90;;;;;;5013464;28;20187;-48
2023/09/18 01:05:34;;;;;;;7.47;3.90;;;20.00;99.90;;;;;;5013705;28;20185;-48
2023/09/18 01:07:59;;;;;;;8.60;4.70;;;20.00;99.90;;;;;;5013386;28;20192;-49
2023/09/18 01:10:34;;;;;;;11.00;4.27;;;20.00;99.90;;;;;;5013245;28;20213;-49
2023/09/18 01:13:13;;;;;;;10.10;4.50;;;20.00;99.90;;;;;;4996810;28;20173;-48
2023/09/18 01:16:02;;;;;;;5.73;4.40;;;19.90;99.90;;;;;;5013641;28;20193;-48
2023/09/18 01:18:28;;;;;;;8.63;4.67;;;19.90;99.90;;;;;;5012980;28;20220;-48
2023/09/18 01:20:53;;;;;;;7.33;4.60;;;19.90;99.90;;;;;;5013250;28;20681;-49
2023/09/18 01:23:19;;;;;;;10.10;4.97;;;19.80;99.90;;;;;;5013279;28;20281;-50
2023/09/18 01:25:45;;;;;;;9.60;4.50;;;19.90;99.90;;;;;;5013332;28;20182;-49
2023/09/18 01:28:10;;;;;;;8.10;4.37;;;19.90;99.90;;;;;;5013538;28;20184;-49
2023/09/18 01:30:38;;;;;;;8.80;4.33;;;19.80;99.90;;;;;;5011851;28;20236;-50
2023/09/18 01:33:04;;;;;;;6.80;4.40;;;19.90;99.90;;;;;;5013170;28;20216;-49
2023/09/18 01:35:33;;;;;;;7.47;4.20;;;19.80;99.90;;;;;;5014472;28;20210;-51
2023/09/18 01:38:00;;;;;;;6.57;4.30;;;19.90;99.90;;;;;;5015947;28;20233;-48
2023/09/18 01:40:26;;;;;;;9.73;4.57;;;19.90;99.90;;;;;;5017958;28;20539;-48
2023/09/18 01:42:53;;;;;;;15.93;4.93;;;19.90;99.90;;;;;;5017432;28;20532;-48
2023/09/18 01:45:19;;;;;;;11.13;4.53;;;19.90;99.90;;;;;;5016846;28;20173;-49
2023/09/18 01:47:46;;;;;;;8.83;4.30;;;19.90;99.90;;;;;;5016741;28;20239;-50
2023/09/18 01:50:12;;;;;;;12.10;4.43;;;19.90;99.90;;;;;;5016993;28;20193;-49
2023/09/18 01:52:38;;;;;;;11.30;4.40;;;19.90;99.90;;;;;;5015442;28;20186;-50
2023/09/18 01:55:07;;;;;;;9.70;4.60;;;19.90;99.90;;;;;;4999027;28;20193;-51
2023/09/18 01:57:33;;;;;;;12.60;4.80;;;20.00;99.90;;;;;;5016918;28;20680;-49
2023/09/18 01:59:59;;;;;;;9.33;4.93;;;19.90;99.90;;;;;;5016824;28;20202;-49
2023/09/18 02:02:24;;;;;;;8.73;4.57;;;19.90;99.90;;;;;;5016818;28;20197;-49
2023/09/18 02:04:50;;;;;;;12.20;4.73;;;19.90;99.90;;;;;;5016534;28;20204;-49
2023/09/18 02:07:16;;;;;;;8.73;4.43;;;19.90;99.90;;;;;;5027845;23;20300;-49
2023/09/18 02:09:41;;;;;;;11.73;5.00;;;19.90;99.90;;;;;;5036451;28;20227;-48
2023/09/18 02:12:07;;;;;;;9.10;4.60;;;19.90;99.90;;;;;;5036182;28;20205;-49
2023/09/18 02:14:33;;;;;;;10.77;4.57;;;19.90;99.90;;;;;;5036105;28;20226;-48
2023/09/18 02:16:59;;;;;;;15.00;4.53;;;19.90;99.90;;;;;;5036387;28;20208;-48
2023/09/18 02:19:26;;;;;;;9.90;4.20;;;20.00;99.90;;;;;;5034949;28;20725;-49
2023/09/18 02:21:52;;;;;;;9.20;4.50;;;20.00;99.90;;;;;;5036376;28;20557;-49
2023/09/18 02:24:19;;;;;;;10.43;4.63;;;20.00;99.90;;;;;;5036210;28;20204;-51
2023/09/18 02:26:45;;;;;;;9.27;4.47;;;20.00;99.90;;;;;;5036208;28;20519;-49
2023/09/18 02:29:11;;;;;;;8.50;4.70;;;20.10;99.90;;;;;;5036054;28;20208;-49
2023/09/18 02:31:38;;;;;;;5.90;4.33;;;20.10;99.90;;;;;;5036090;28;20319;-49
2023/09/18 02:34:03;;;;;;;9.03;4.57;;;20.10;99.30;;;;;;5035778;28;20181;-49
2023/09/18 02:36:29;;;;;;;6.70;4.40;;;20.10;99.90;;;;;;5034401;28;20235;-51
2023/09/18 02:38:55;;;;;;;11.40;4.90;;;20.10;99.70;;;;;;5035537;28;20189;-50
2023/09/18 02:41:21;;;;;;;7.73;4.73;;;20.10;99.10;;;;;;5035859;28;20266;-51
2023/09/18 02:43:46;;;;;;;15.63;4.50;;;20.10;98.90;;;;;;5035745;28;20786;-49
2023/09/18 02:46:12;;;;;;;10.47;5.03;;;20.10;98.30;;;;;;5035083;28;20247;-49
2023/09/18 02:48:38;;;;;;;8.80;4.73;;;20.10;99.90;;;;;;5035685;28;20177;-49
2023/09/18 02:51:05;;;;;;;12.40;4.77;;;20.10;99.90;;;;;;5034087;28;20208;-48
2023/09/18 02:53:30;;;;;;;6.40;4.13;;;20.10;99.90;;;;;;5035280;28;20173;-50
2023/09/18 02:55:59;;;;;;;9.67;4.87;;;20.00;99.90;;;;;;5033942;28;20181;-49
2023/09/18 02:58:29;;;;;;;8.67;4.53;;;20.00;99.90;;;;;;5035383;28;20208;-50
2023/09/18 03:00:59;;;;;;;11.50;4.87;;;20.00;99.90;;;;;;5035646;28;20586;-45
2023/09/18 03:06:19;;;;;;;10.17;4.93;;;20.00;99.90;;;;;;4709661;26;20235;-45
2023/09/18 03:08:46;;;;;;;8.93;4.13;;;19.90;99.90;;;;;;5038885;28;20203;-44
2023/09/18 03:11:14;;;;;;;8.23;4.13;;;19.90;99.90;;;;;;5055553;28;20184;-44
2023/09/18 03:13:47;;;;;;;10.53;4.10;;;19.80;99.90;;;;;;5055397;28;20189;-44
2023/09/18 03:18:51;;;;;;;5.30;3.07;;;19.80;99.90;;;;;;4896732;26;20240;-49
2023/09/18 03:21:17;;;;;;;5.63;3.57;;;19.80;99.90;;;;;;5035152;28;20188;-49
2023/09/18 03:23:43;;;;;;;8.33;3.43;;;19.80;99.90;;;;;;5035029;28;20187;-51
2023/09/18 03:26:09;;;;;;;5.47;2.93;;;19.80;99.90;;;;;;5034785;28;20647;-48
2023/09/18 03:28:34;;;;;;;8.00;3.40;;;19.80;99.90;;;;;;5034951;28;20268;-50
2023/09/18 03:31:00;;;;;;;8.03;3.70;;;19.80;99.90;;;;;;5034673;28;20640;-48
2023/09/18 03:33:26;;;;;;;7.17;3.20;;;19.70;99.90;;;;;;5033308;28;20177;-48
2023/09/18 03:35:54;;;;;;;8.80;3.10;;;19.70;99.90;;;;;;5034708;28;20243;-49
2023/09/18 03:38:20;;;;;;;11.63;3.63;;;19.70;99.90;;;;;;5034385;28;20643;-48
2023/09/18 03:40:46;;;;;;;4.43;2.70;;;19.70;99.90;;;;;;5035382;28;20192;-48
2023/09/18 03:43:13;;;;;;;6.20;3.13;;;19.80;99.90;;;;;;5034898;28;20195;-49
2023/09/18 03:45:40;;;;;;;8.40;2.90;;;19.70;99.90;;;;;;5033095;28;20181;-48
2023/09/18 03:48:06;;;;;;;6.67;2.80;;;19.70;99.90;;;;;;5033212;28;20273;-48
2023/09/18 03:50:32;;;;;;;8.03;2.93;;;19.70;99.90;;;;;;5034190;28;20203;-48
2023/09/18 03:52:58;;;;;;;3.67;2.30;;;19.70;99.90;;;;;;5034377;28;20181;-50
2023/09/18 03:55:24;;;;;;;11.90;2.87;;;19.70;99.90;;;;;;5034182;28;20208;-48
2023/09/18 03:57:53;;;;;;;9.50;2.53;;;19.70;99.90;;;;;;5033537;28;20611;-49
2023/09/18 04:00:18;;;;;;;7.50;2.80;;;19.70;99.90;;;;;;5034296;28;20259;-50
2023/09/18 04:02:45;;;;;;;7.83;3.07;;;19.70;99.90;;;;;;5034165;28;20197;-49
2023/09/18 04:05:11;;;;;;;11.83;2.60;;;19.70;99.90;;;;;;5034434;28;20692;-47
2023/09/18 04:10:22;;;;;;;10.40;2.53;;;19.70;99.90;;;;;;4610457;23;20233;-48
2023/09/18 04:12:50;;;;;;;7.70;2.80;;;19.70;99.90;;;;;;5032695;28;20176;-47
2023/09/18 04:15:18;;;;;;;8.40;2.70;;;19.70;99.90;;;;;;5034244;28;20189;-49
2023/09/18 04:17:44;;;;;;;9.83;2.50;;;19.60;99.90;;;;;;5034064;28;20616;-50
2023/09/18 04:20:12;;;;;;;7.97;2.80;;;19.50;99.90;;;;;;5016166;28;20267;-45
2023/09/18 04:22:49;;;;;;;6.13;2.30;;;19.50;99.90;;;;;;5032496;28;20177;-45
2023/09/18 04:25:16;;;;;;;6.43;2.20;;;19.40;99.90;;;;;;5034246;28;20601;-44
2023/09/18 04:27:42;;;;;;;5.93;2.60;;;19.40;99.90;;;;;;5033639;28;20224;-45
2023/09/18 04:30:09;;;;;;;5.30;2.30;;;19.30;99.90;;;;;;5033555;28;20204;-44
2023/09/18 04:32:38;;;;;;;6.07;2.73;;;19.30;99.90;;;;;;5033618;28;20652;-44
2023/09/18 04:35:05;;;;;;;9.00;1.87;;;19.20;99.90;;;;;;5033527;28;20652;-45
2023/09/18 04:37:31;;;;;;;4.60;1.90;;;19.10;99.90;;;;;;5015854;28;20296;-46
2023/09/18 04:39:59;;;;;;;6.93;2.00;;;19.10;99.90;;;;;;5033872;28;20224;-44
2023/09/18 04:42:25;;;;;;;4.10;1.73;;;19.10;99.90;;;;;;5033550;28;20180;-45
2023/09/18 04:44:51;;;;;;;7.20;1.90;;;19.00;99.90;;;;;;5033880;28;20227;-44
2023/09/18 04:47:17;;;;;;;11.53;1.97;;;19.00;99.90;;;;;;5033507;28;20181;-43
2023/09/18 04:49:45;;;;;;;5.20;2.00;;;19.00;99.90;;;;;;5033840;28;20201;-43
2023/09/18 05:02:44;;;;;;;7.33;1.80;;;18.90;99.90;;;;;;5219646;22;20586;-44
2023/09/18 05:07:45;;;;;;;3.63;1.50;;;19.00;99.90;;;;;;4220626;26;20678;-48
2023/09/18 05:12:40;;;;;;;5.23;1.77;;;18.90;99.90;;;;;;5016155;28;20248;-45
2023/09/18 05:15:07;;;;;;;4.93;1.60;;;18.90;99.90;;;;;;5016378;28;20200;-47
2023/09/18 05:17:46;;;;;;;3.17;1.47;;;19.00;99.90;;;;;;5017923;28;20347;-42
2023/09/18 05:20:16;;;;;;;4.80;1.50;;;18.90;99.90;;;;;;5048806;28;20676;-45
2023/09/18 05:22:43;;;;;;;4.43;1.70;;;18.90;99.90;;;;;;5017625;28;20184;-45
2023/09/18 05:25:10;;;;;;;4.53;1.60;;;18.90;99.90;;;;;;5015968;28;20184;-45
2023/09/18 05:27:43;;;;;;;5.00;1.40;;;18.90;99.90;;;;;;5017483;28;20181;-46
2023/09/18 05:30:12;;;;;;;4.10;1.60;;;18.90;99.90;;;;;;5017260;28;20228;-43
2023/09/18 05:32:39;;;;;;;4.90;1.63;;;19.00;99.90;;;;;;5017629;28;20260;-45
2023/09/18 05:35:09;;;;;;;6.47;1.70;;;19.00;99.90;;;;;;5048782;23;20235;-89
2023/09/18 05:37:37;;;;;;;3.43;1.33;;;19.00;99.90;;;;;;5038970;28;20216;-91
2023/09/18 05:40:05;;;;;;;5.90;1.53;;;19.00;99.90;;;;;;5041992;28;20191;-89
2023/09/18 05:42:31;;;;;;;3.43;1.37;;;19.00;99.90;;;;;;5041985;28;20212;-91
2023/09/18 05:44:56;;;;;;;5.00;1.50;;;20.20;99.90;;;;;;5041068;28;20189;-93
2023/09/18 05:47:23;;;;;;;1.97;1.40;;;19.10;99.90;;;;;;5044144;28;20200;-91
2023/09/18 05:49:48;;;;;;;6.10;1.70;;;19.10;99.90;;;;;;5044947;28;20641;-91
2023/09/18 05:52:14;;;;;;;4.57;1.40;;;19.10;99.90;;;;;;5045101;28;20192;-93
2023/09/18 05:54:40;;;;;;;9.90;1.70;;;19.10;99.90;;;;;;5044368;28;20181;-91
2023/09/18 05:57:06;;;;;;;8.33;1.60;;;19.00;99.90;;;;;;5043078;28;20205;-91
2023/09/18 05:59:32;;;;;;;3.47;1.37;;;19.10;99.90;;;;;;5043523;28;20239;-90
2023/09/18 06:01:58;;;;;;;3.47;1.43;;;19.40;99.90;;;;;;5045993;28;20268;-92
2023/09/18 06:04:24;;;;;;;3.83;1.60;;;19.10;99.90;;;;;;5052036;28;20181;-86
2023/09/18 06:06:51;;;;;;;4.77;1.37;;;19.10;99.90;;;;;;5044839;28;20205;-93
2023/09/18 06:09:18;;;;;;;3.77;1.40;;;19.10;99.90;;;;;;5045106;28;20188;-91
2023/09/18 06:11:43;;;;;;;3.03;1.40;;;19.30;99.90;;;;;;5028340;28;20212;-93
2023/09/18 06:14:10;;;;;;;3.10;1.40;;;19.10;99.90;;;;;;5043629;28;20181;-92
2023/09/18 06:16:35;;;;;;;3.67;1.43;;;19.00;99.90;;;;;;5043340;28;20208;-94
2023/09/18 06:19:04;;;;;;;2.70;1.50;;;20.10;99.90;;;;;;5044873;28;20529;-92
2023/09/18 06:21:29;;;;;;;2.97;1.20;;;19.20;99.90;;;;;;5042003;28;20177;-93
2023/09/18 06:23:55;;;;;;;6.47;1.70;;;19.10;99.90;;;;;;5042876;28;20188;-92
2023/09/18 06:26:21;;;;;;;3.27;1.60;;;19.20;99.90;;;;;;5043118;28;20207;-95
2023/09/18 06:28:47;;;;;;;3.53;1.53;;;19.20;99.90;;;;;;5043357;28;20176;-92
2023/09/18 06:31:12;;;;;;;4.90;1.20;;;19.30;99.90;;;;;;5042836;28;20204;-91
2023/09/18 06:33:38;;;;;;;3.87;1.80;;;19.30;99.90;;;;;;5043539;28;20173;-93
2023/09/18 06:36:04;;;;;;;2.30;1.17;;;19.30;99.90;;;;;;5042441;28;20216;-95
2023/09/18 06:38:30;;;;;;;4.70;1.40;;;19.30;99.90;;;;;;5042874;28;20209;-93
2023/09/18 06:40:55;;;;;;;6.03;1.03;;;19.40;99.90;;;;;;5025852;28;20185;-92
2023/09/18 06:43:22;;;;;;;1.70;1.00;;;19.40;99.90;;;;;;5042446;28;20177;-91
2023/09/18 06:45:48;;;;;;;6.07;2.07;;;19.50;99.90;;;;;;5041462;28;20224;-92
2023/09/18 06:48:16;;;;;;;4.47;1.83;;;19.40;99.90;;;;;;5041615;28;20556;-92
2023/09/18 06:50:43;;;;;;;4.90;1.20;;;19.50;99.90;;;;;;5040762;28;20185;-92
2023/09/18 06:53:10;;;;;;;4.07;1.20;;;19.50;99.90;;;;;;5041050;28;20196;-93
2023/09/18 06:55:36;;;;;;;1.50;1.00;;;19.50;99.90;;;;;;5040832;28;20204;-92
2023/09/18 06:58:02;;;;;;;3.23;1.37;;;19.90;99.90;;;;;;5040899;28;20204;-89
2023/09/18 07:00:27;;;;;;;2.50;1.10;;;19.60;99.90;;;;;;5040880;28;20318;-90
2023/09/18 07:02:53;;;;;;;3.30;1.33;;;20.60;99.90;;;;;;5041646;28;20181;-91
2023/09/18 07:05:19;;;;;;;3.40;1.30;;;19.60;99.90;;;;;;5040397;28;20183;-92
2023/09/18 07:07:44;;;;;;;5.60;1.50;;;19.60;99.90;;;;;;5041080;28;20212;-92
2023/09/18 07:10:10;;;;;;;1.87;1.17;;;19.70;99.90;;;;;;5041543;28;20182;-92
2023/09/18 07:12:36;;;;;;;4.63;1.30;;;19.70;99.90;;;;;;5040739;28;20181;-93
2023/09/18 07:15:03;;;;;;;3.67;1.20;;;19.60;99.90;;;;;;5040179;28;20318;-91
2023/09/18 07:17:29;;;;;;;3.47;1.30;;;19.60;99.90;;;;;;5040519;28;20268;-94
2023/09/18 07:19:54;;;;;;;2.40;1.10;;;19.50;99.90;;;;;;5039375;28;20219;-91
2023/09/18 07:22:20;;;;;;;4.97;1.30;;;19.70;99.90;;;;;;5038327;28;20655;-94
2023/09/18 07:24:46;;;;;;;2.50;1.20;;;19.70;99.90;;;;;;5056538;28;20332;-92
2023/09/18 07:27:12;;;;;;;2.80;1.20;;;19.80;99.90;;;;;;5041221;28;20727;-93
2023/09/18 07:29:39;;;;;;;4.67;1.13;;;20.20;99.90;;;;;;5041022;28;20263;-91
2023/09/18 07:32:04;;;;;;;2.53;1.20;;;19.70;99.90;;;;;;5040049;28;20231;-92
2023/09/18 07:34:30;;;;;;;2.00;1.10;;;19.70;99.90;;;;;;5041540;28;20184;-92
2023/09/18 07:36:56;;;;;;;2.47;1.30;;;19.70;99.90;;;;;;5039709;28;20724;-92
2023/09/18 07:39:22;;;;;;;2.90;1.37;;;19.80;99.90;;;;;;5040841;28;20173;-92
2023/09/18 07:41:47;;;;;;;5.10;1.20;;;19.70;99.90;;;;;;5040750;28;20264;-91
2023/09/18 07:44:19;;;;;;;5.77;1.43;;;19.70;99.90;;;;;;5039158;28;20177;-92
2023/09/18 07:46:44;;;;;;;4.10;1.27;;;19.80;99.90;;;;;;5040291;28;20192;-93
2023/09/18 07:49:10;;;;;;;3.67;1.17;;;19.80;99.90;;;;;;5039359;28;20632;-91
2023/09/18 07:51:36;;;;;;;4.40;1.30;;;19.70;99.90;;;;;;5039712;28;20185;-92
2023/09/18 07:54:01;;;;;;;2.33;1.00;;;19.60;99.30;;;;;;5039235;28;20188;-92
2023/09/18 07:56:27;;;;;;;9.30;1.37;;;19.80;98.60;;;;;;5038928;28;20277;-93
2023/09/18 07:58:52;;;;;;;3.47;1.20;;;20.20;99.60;;;;;;5041681;28;20180;-87
2023/09/18 08:01:21;;;;;;;1.90;1.00;;;19.80;99.90;;;;;;5048825;28;20177;-90
2023/09/18 08:03:47;;;;;;;3.87;1.20;;;19.90;99.90;;;;;;5039408;28;20189;-93
2023/09/18 08:06:14;;;;;;;2.27;0.90;;;20.30;98.70;;;;;;5038928;28;20287;-93
2023/09/18 08:08:40;;;;;;;3.53;1.10;;;20.10;98.90;;;;;;5040618;28;20621;-92
2023/09/18 08:11:09;;;;;;;3.30;1.10;;;19.90;97.90;;;;;;5023267;28;20192;-92
2023/09/18 08:13:35;;;;;;;5.30;1.60;;;20.00;98.40;;;;;;5041288;28;20226;-92
2023/09/18 08:16:01;;;;;;;3.23;0.97;;;20.00;98.50;;;;;;5040007;28;20692;-90
2023/09/18 08:18:26;;;;;;;3.40;1.03;;;20.20;94.80;;;;;;5039181;28;20223;-92
2023/09/18 08:20:54;;;;;;;5.77;1.03;;;20.10;94.80;;;;;;5040984;28;20165;-88
2023/09/18 08:23:19;;;;;;;2.57;1.07;;;20.30;95.00;;;;;;5038811;28;20204;-93
2023/09/18 08:25:47;;;;;;;3.20;1.20;;;21.00;95.70;;;;;;5039514;28;20173;-93
2023/09/18 08:28:15;;;;;;;4.83;1.20;;;20.30;93.70;;;;;;5039067;28;20279;-90
2023/09/18 08:30:44;;;;;;;3.33;1.27;;;20.20;93.80;;;;;;5039284;28;20700;-93
2023/09/18 08:33:11;;;;;;;4.37;1.10;;;20.20;92.20;;;;;;5041262;28;20168;-92
2023/09/18 08:35:36;;;;;;;3.87;1.30;;;20.80;93.10;;;;;;5039815;28;20212;-91
2023/09/18 08:38:03;;;;;;;3.07;1.33;;;20.30;92.60;;;;;;5022035;28;20233;-89
2023/09/18 08:40:30;;;;;;;2.77;1.30;;;20.30;91.40;;;;;;5039327;28;20557;-92
2023/09/18 08:42:56;;;;;;;2.07;1.03;;;20.40;92.00;;;;;;5039571;28;20197;-90
2023/09/18 08:45:33;;;;;;;2.77;1.07;;;20.40;91.70;;;;;;5039718;28;20177;-89
2023/09/18 08:48:00;;;;;;;2.80;1.10;;;20.40;90.70;;;;;;5038380;28;20204;-91
2023/09/18 08:50:26;;;;;;;3.07;1.03;;;20.50;91.10;;;;;;5038437;28;20645;-92
2023/09/18 08:52:52;;;;;;;2.67;1.00;;;20.50;90.30;;;;;;5039255;28;20185;-91
2023/09/18 08:55:18;;;;;;;3.60;1.03;;;20.70;86.40;;;;;;5040004;28;20177;-91
2023/09/18 08:57:45;;;;;;;3.60;1.10;;;20.70;82.70;;;;;;5038907;28;20215;-93
2023/09/18 09:00:16;;;;;;;2.00;1.10;;;20.80;83.90;;;;;;5038990;28;20177;-93
2023/09/18 09:02:48;;;;;;;2.43;1.13;;;21.30;83.60;;;;;;5040197;28;20177;-91
2023/09/18 09:05:14;;;;;;;3.60;1.20;;;20.80;80.30;;;;;;5039573;28;20231;-89
2023/09/18 09:07:39;;;;;;;1.53;0.97;;;20.80;77.60;;;;;;5038901;28;20200;-93
2023/09/18 09:10:05;;;;;;;4.93;1.30;;;21.00;79.40;;;;;;5039601;28;20268;-93
2023/09/18 09:12:53;;;;;;;4.00;1.17;;;20.90;81.80;;;;;;5039235;28;20256;-92
2023/09/18 09:15:26;;;;;;;5.67;1.60;;;20.90;78.20;;;;;;5039356;28;20272;-93
2023/09/18 09:18:03;;;;;;;6.07;0.90;;;21.00;77.30;;;;;;5038497;28;20311;-90
2023/09/18 09:20:28;;;;;;;1.97;1.00;;;21.30;74.10;;;;;;5038538;28;20188;-92
2023/09/18 09:23:05;;;;;;;2.43;1.10;;;21.00;73.60;;;;;;5037851;28;20177;-94
2023/09/18 09:25:33;;;;;;;3.50;1.30;;;21.10;72.50;;;;;;5049050;28;20191;-92
2023/09/18 09:28:00;;;;;;;2.87;1.07;;;21.10;75.70;;;;;;5043652;28;20235;-92
2023/09/18 09:30:28;;;;;;;2.17;1.20;;;21.10;73.60;;;;;;5039204;28;20358;-91
2023/09/18 09:32:56;;;;;;;2.77;1.30;;;21.20;71.30;;;;;;5038772;28;20176;-93
2023/09/18 09:35:29;;;;;;;3.40;1.40;;;21.30;69.60;;;;;;5037488;28;20223;-93
2023/09/18 09:38:01;;;;;;;1.67;1.20;;;21.30;75.00;;;;;;5039325;28;20269;-93
2023/09/18 09:40:32;;;;;;;4.77;1.50;;;21.40;73.10;;;;;;5039442;28;20193;-89
2023/09/18 09:43:00;;;;;;;1.63;0.90;;;21.40;73.80;;;;;;5038295;28;20188;-93
2023/09/18 09:45:31;;;;;;;2.37;1.13;;;21.60;72.20;;;;;;5038918;28;20359;-92
2023/09/18 09:47:57;;;;;;;1.60;0.97;;;21.60;73.20;;;;;;5038042;28;20295;-92
2023/09/18 09:50:25;;;;;;;2.17;1.17;;;21.60;73.40;;;;;;5039178;28;20189;-90
2023/09/18 09:52:52;;;;;;;2.47;1.13;;;21.80;73.60;;;;;;5037970;28;20184;-91
2023/09/18 09:55:33;;;;;;;1.50;1.30;;;21.90;64.90;;;;;;5047713;28;20207;-85
2023/09/18 09:58:04;;;;;;;4.53;1.30;;;22.00;64.20;;;;;;5043707;28;20629;-93
2023/09/18 10:00:50;;;;;;;3.77;1.53;;;22.10;69.80;;;;;;5043731;28;20177;-91
2023/09/18 10:03:18;;;;;;;4.17;1.20;;;22.20;65.30;;;;;;5043883;28;20194;-91
2023/09/18 10:05:47;;;;;;;2.97;1.33;;;22.20;59.60;;;;;;5045706;28;20186;-93
2023/09/18 10:08:16;;;;;;;2.70;1.27;;;22.40;59.10;;;;;;5044811;28;20177;-91
2023/09/18 10:10:49;;;;;;;4.23;1.40;;;22.40;58.30;;;;;;5044272;28;20232;-93
2023/09/18 10:13:46;;;;;;;3.17;1.30;;;22.60;47.00;;;;;;5043852;28;20181;-91
2023/09/18 10:16:14;;;;;;;1.73;1.10;;;22.70;50.30;;;;;;5044836;28;20203;-93
2023/09/18 10:19:18;;;;;;;1.53;1.10;;;22.70;52.10;;;;;;5045378;28;20291;-93
2023/09/18 10:22:05;;;;;;;3.67;1.63;;;22.70;53.30;;;;;;5044873;28;20187;-90
2023/09/18 10:24:36;;;;;;;3.33;1.33;;;22.90;52.20;;;;;;5044601;28;20173;-94
2023/09/18 10:27:03;;;;;;;2.60;1.27;;;23.00;49.70;;;;;;5043616;28;20251;-95
2023/09/18 10:29:30;;;;;;;2.87;1.30;;;23.00;37.50;;;;;;5044366;28;20181;-92
2023/09/18 10:31:56;;;;;;;4.43;1.20;;;23.10;50.20;;;;;;5043240;28;20208;-93
2023/09/18 10:34:23;;;;;;;1.73;1.20;;;22.70;31.10;;;;;;5043651;28;20181;-94
2023/09/18 10:36:51;;;;;;;3.57;1.40;;;23.30;39.50;;;;;;5043582;28;20212;-93
2023/09/18 10:39:23;;;;;;;4.87;1.47;;;23.30;50.90;;;;;;5043775;28;20248;-91
2023/09/18 10:41:53;;;;;;;2.27;1.30;;;23.40;58.90;;;;;;5044228;28;20204;-93
2023/09/18 10:44:19;;;;;;;1.83;1.10;;;23.50;44.60;;;;;;5043821;28;20188;-93
2023/09/18 10:46:51;;;;;;;1.97;1.27;;;23.50;53.90;;;;;;5044954;28;20224;-92
2023/09/18 10:49:18;;;;;;;2.10;1.20;;;23.70;64.40;;;;;;5028509;28;20181;-94
2023/09/18 10:51:44;;;;;;;3.00;1.50;;;23.80;67.30;;;;;;5043909;28;20641;-94
2023/09/18 10:54:19;;;;;;;3.73;1.20;;;23.80;53.70;;;;;;5042325;28;20200;-91
2023/09/18 10:56:45;;;;;;;3.67;1.63;;;23.80;37.70;;;;;;5041815;28;20262;-93
2023/09/18 10:59:11;;;;;;;4.40;1.50;;;23.90;40.40;;;;;;5043072;28;20205;-92
2023/09/18 11:01:37;;;;;;;3.27;1.17;;;23.80;56.20;;;;;;5041895;28;20220;-93
2023/09/18 11:04:08;;;;;;;5.57;1.73;;;24.00;54.80;;;;;;5041264;28;20563;-90
2023/09/18 11:06:55;;;;;;;4.67;1.37;;;24.00;84.10;;;;;;5042889;28;20700;-96
2023/09/18 11:09:26;;;;;;;5.37;1.20;;;24.20;76.80;;;;;;5044035;28;20196;-92
2023/09/18 11:12:14;;;;;;;4.17;1.40;;;24.30;64.10;;;;;;5043964;28;20173;-91
2023/09/18 11:14:49;;;;;;;2.90;1.30;;;24.50;47.50;;;;;;5043398;28;20185;-90
2023/09/18 11:17:41;;;;;;;5.17;1.30;;;24.50;40.00;;;;;;5042522;28;20207;-93
2023/09/18 11:20:17;;;;;;;2.50;1.20;;;24.40;42.20;;;;;;5039976;28;20193;-91
2023/09/18 11:22:58;;;;;;;1.43;1.20;;;24.40;34.40;;;;;;5043456;28;20275;-94
2023/09/18 11:25:42;;;;;;;3.03;1.37;;;24.40;21.30;;;;;;5044254;28;20172;-90
2023/09/18 11:28:13;;;;;;;5.60;1.63;;;24.30;10.70;;;;;;5058138;28;20205;-93
2023/09/18 11:30:57;;;;;;;2.63;1.40;;;24.30;26.60;;;;;;5041896;28;20264;-92
2023/09/18 11:33:45;;;;;;;2.40;1.50;;;23.70;36.00;;;;;;5043303;28;20188;-91
2023/09/18 11:36:32;;;;;;;4.43;1.77;;;24.30;18.40;;;;;;5043330;28;20221;-92
2023/09/18 11:39:05;;;;;;;1.70;1.17;;;24.40;36.80;;;;;;5042694;28;20180;-90
2023/09/18 11:41:36;;;;;;;2.03;1.30;;;24.60;35.40;;;;;;5044201;28;20181;-91
2023/09/18 11:44:13;;;;;;;2.43;1.20;;;24.80;44.80;;;;;;5042805;28;20177;-93
2023/09/18 11:46:40;;;;;;;3.00;1.60;;;24.80;41.00;;;;;;5043547;28;20207;-92
2023/09/18 11:49:11;;;;;;;4.17;1.47;;;24.80;25.10;;;;;;5043412;28;20187;-91
2023/09/18 11:51:40;;;;;;;2.50;1.40;;;24.80;24.00;;;;;;5052153;28;20203;-93
2023/09/18 11:54:07;;;;;;;1.53;1.20;;;24.90;22.10;;;;;;5041770;28;20278;-91
2023/09/18 11:56:34;;;;;;;4.00;1.30;;;24.80;11.10;;;;;;5041376;28;20196;-91
2023/09/18 11:59:04;;;;;;;2.30;1.20;;;25.00;23.40;;;;;;5042012;28;20189;-94
2023/09/18 12:01:31;;;;;;;1.77;1.10;;;25.10;15.10;;;;;;5041709;28;20173;-93
2023/09/18 12:04:11;;;;;;;3.40;1.20;;;25.40;21.80;;;;;;5042938;28;20177;-92
2023/09/18 12:06:39;;;;;;;3.50;1.40;;;25.20;31.70;;;;;;5027916;28;20274;-91
2023/09/18 12:09:08;;;;;;;1.53;1.20;;;25.20;13.00;;;;;;5042864;28;20177;-92
2023/09/18 12:11:41;;;;;;;2.00;1.13;;;25.20;7.00;;;;;;5042521;28;20176;-94
2023/09/18 12:14:07;;;;;;;4.03;1.20;;;25.20;1.00;;;;;;5038805;28;20259;-91
2023/09/18 12:16:39;;;;;;;2.30;1.20;;;25.20;12.80;;;;;;5040234;28;20197;-93
2023/09/18 12:19:06;;;;;;;3.30;1.30;;;25.10;10.70;;;;;;5040364;28;20249;-92
2023/09/18 12:21:33;;;;;;;6.13;1.40;;;25.20;31.60;;;;;;5040698;28;20670;-91
2023/09/18 12:23:59;;;;;;;2.03;1.27;;;25.30;65.20;;;;;;5040424;28;20185;-91
2023/09/18 12:26:26;;;;;;;3.23;1.47;;;25.40;37.10;;;;;;5042425;28;20596;-93
2023/09/18 12:28:52;;;;;;;2.07;1.30;;;25.40;7.90;;;;;;5044374;28;20587;-93
2023/09/18 12:31:18;;;;;;;1.97;1.20;;;25.50;43.40;;;;;;5031431;28;20278;-93
2023/09/18 12:33:46;;;;;;;4.37;1.43;;;25.50;13.30;;;;;;5047937;28;20181;-90
2023/09/18 12:36:14;;;;;;;3.27;1.37;;;25.50;18.80;;;;;;5043924;28;20216;-90
2023/09/18 12:38:40;;;;;;;4.70;1.30;;;25.40;43.10;;;;;;5046229;28;20204;-92
2023/09/18 12:41:12;;;;;;;2.33;1.30;;;25.50;24.60;;;;;;5046523;28;20208;-93
2023/09/18 12:43:41;;;;;;;2.57;1.20;;;25.50;12.00;;;;;;5050889;28;20185;-93
2023/09/18 12:48:38;;;;;;;3.00;1.30;;;25.50;50.10;;;;;;5040958;22;20600;-47
2023/09/18 12:51:05;;;;;;;2.83;1.30;;;25.50;28.00;;;;;;5033468;28;20175;-46
2023/09/18 12:53:32;;;;;;;1.83;1.23;;;25.60;40.00;;;;;;5033450;28;20295;-46
2023/09/18 12:56:15;;;;;;;2.80;1.40;;;25.70;43.50;;;;;;5033446;28;20601;-47
2023/09/18 12:58:42;;;;;;;2.83;1.23;;;25.80;55.60;;;;;;5033558;28;20203;-46
2023/09/18 13:01:11;;;;;;;2.73;1.30;;;25.90;57.80;;;;;;5033689;28;20169;-46
2023/09/18 13:03:46;;;;;;;2.00;1.27;;;25.90;7.80;;;;;;5033341;28;20262;-46
2023/09/18 13:06:24;;;;;;;5.83;1.30;;;25.80;7.80;;;;;;5032122;28;20183;-46
2023/09/18 13:08:53;;;;;;;5.60;1.10;;;25.70;35.80;;;;;;5033414;28;20176;-47
2023/09/18 13:11:20;;;;;;;2.13;1.30;;;25.70;18.90;;;;;;5032364;28;20789;-47
2023/09/18 13:13:46;;;;;;;3.37;1.17;;;25.60;40.90;;;;;;5033262;28;20180;-46
2023/09/18 13:16:14;;;;;;;3.53;1.50;;;25.50;33.70;;;;;;5033468;28;20181;-47
2023/09/18 13:18:42;;;;;;;3.60;1.47;;;25.40;15.50;;;;;;5032164;28;20201;-47